Time;durP1;ratioP1;P1;durP2;ratioP2;P2;SDS_P1;SDS_P2;PMS_P1;PMS_P2;Temp;Humidity;BMP_temperature;BMP_pressure;BME280_temperature;BME280_humidity;BME280_pressure;Samples;Min_cycle;Max_cycle;Signal;HPM_P1;HPM_P2
2022/08/12 00:44:02;;;;;;;8.38;3.55;;;;;;;;;;5129490;28;20336;-81
2022/08/12 00:46:41;;;;;;;4.10;3.08;;;;;;;;;;5117754;27;20236;-81
2022/08/12 00:49:09;;;;;;;6.13;2.87;;;;;;;;;;5115344;28;20237;-82
2022/08/12 00:54:25;;;;;;;3.17;2.90;;;;;;;;;;5115085;28;20199;-81
2022/08/12 00:56:54;;;;;;;3.33;3.00;;;;;;;;;;5132241;27;20674;-81
2022/08/12 00:59:23;;;;;;;3.50;3.20;;;;;;;;;;5135182;27;20687;-81
2022/08/12 01:01:50;;;;;;;6.57;3.00;;;;;;;;;;5134704;27;20284;-81
2022/08/12 01:12:37;;;;;;;3.33;2.77;;;;;;;;;;5113860;27;20234;-81
2022/08/12 01:15:04;;;;;;;3.10;2.80;;;;;;;;;;5114212;27;20203;-81
2022/08/12 01:17:32;;;;;;;7.63;3.03;;;;;;;;;;5114458;28;20204;-81
2022/08/12 01:20:00;;;;;;;3.30;3.10;;;;;;;;;;5114130;27;20598;-81
2022/08/12 01:22:31;;;;;;;3.13;2.83;;;;;;;;;;5114400;27;20562;-81
2022/08/12 01:25:06;;;;;;;3.33;3.03;;;;;;;;;;5114422;27;20188;-80
2022/08/12 01:27:34;;;;;;;4.00;3.10;;;;;;;;;;5127179;28;20207;-81
2022/08/12 01:30:02;;;;;;;3.20;3.00;;;;;;;;;;5113668;27;20208;-81
2022/08/12 01:32:33;;;;;;;3.47;3.17;;;;;;;;;;5113478;28;20743;-82
2022/08/12 01:35:03;;;;;;;3.10;2.80;;;;;;;;;;5117888;27;20192;-81
2022/08/12 01:37:31;;;;;;;3.37;2.87;;;;;;;;;;5131461;28;20196;-81
2022/08/12 01:39:59;;;;;;;5.13;3.20;;;;;;;;;;5130990;27;20591;-82
2022/08/12 01:42:32;;;;;;;6.40;3.00;;;;;;;;;;5126345;27;20219;-82
2022/08/12 01:44:59;;;;;;;2.90;2.70;;;;;;;;;;5134189;27;20723;-81
2022/08/12 01:47:33;;;;;;;8.97;3.30;;;;;;;;;;5134041;27;20214;-82
2022/08/12 01:50:12;;;;;;;5.90;2.90;;;;;;;;;;5132951;27;20210;-82
2022/08/12 01:52:43;;;;;;;3.50;3.20;;;;;;;;;;5135082;27;20428;-81
2022/08/12 01:55:12;;;;;;;3.50;3.17;;;;;;;;;;5133679;27;20226;-82
2022/08/12 01:57:44;;;;;;;3.27;2.80;;;;;;;;;;5133872;27;20211;-82
2022/08/12 02:00:12;;;;;;;3.50;3.10;;;;;;;;;;5133590;27;20219;-82
2022/08/12 02:02:40;;;;;;;3.87;3.43;;;;;;;;;;5133638;27;20315;-82
2022/08/12 02:11:20;;;;;;;4.03;3.50;;;;;;;;;;5133253;27;20234;-81
2022/08/12 02:13:54;;;;;;;12.97;3.47;;;;;;;;;;5134137;27;20263;-81
2022/08/12 02:16:29;;;;;;;3.53;3.30;;;;;;;;;;5133356;27;20314;-82
2022/08/12 02:19:00;;;;;;;8.00;3.53;;;;;;;;;;5092907;28;20210;-82
2022/08/12 02:21:31;;;;;;;4.60;3.27;;;;;;;;;;5120948;27;20241;-82
2022/08/12 02:23:59;;;;;;;3.53;3.23;;;;;;;;;;5133846;27;20302;-82
2022/08/12 02:26:29;;;;;;;7.20;3.53;;;;;;;;;;5133077;27;20235;-82
2022/08/12 02:28:58;;;;;;;5.80;3.30;;;;;;;;;;5133294;27;20214;-82
2022/08/12 02:31:27;;;;;;;6.53;3.57;;;;;;;;;;5132004;27;20268;-81
2022/08/12 02:33:54;;;;;;;5.37;3.37;;;;;;;;;;5133284;27;20223;-81
2022/08/12 02:36:21;;;;;;;8.07;3.90;;;;;;;;;;5133151;27;20235;-82
2022/08/12 02:38:49;;;;;;;6.27;3.40;;;;;;;;;;5134678;27;20238;-82
2022/08/12 02:41:20;;;;;;;5.30;3.37;;;;;;;;;;5149763;22;20242;-87
2022/08/12 02:43:50;;;;;;;14.63;3.93;;;;;;;;;;5054595;28;20198;-86
2022/08/12 02:46:22;;;;;;;6.97;3.60;;;;;;;;;;5051526;28;20230;-86
2022/08/12 02:48:51;;;;;;;3.40;3.10;;;;;;;;;;5052275;28;20206;-87
2022/08/12 02:51:19;;;;;;;5.67;3.23;;;;;;;;;;5051616;28;20699;-86
2022/08/12 02:53:47;;;;;;;7.83;3.47;;;;;;;;;;5051983;28;20288;-86
2022/08/12 02:56:16;;;;;;;7.37;3.30;;;;;;;;;;5051871;28;20238;-86
2022/08/12 02:58:45;;;;;;;8.23;3.57;;;;;;;;;;5052061;28;20248;-87
2022/08/12 03:01:14;;;;;;;7.23;3.70;;;;;;;;;;5051631;28;20830;-86
2022/08/12 03:03:42;;;;;;;6.50;3.70;;;;;;;;;;5051690;28;20737;-88
2022/08/12 03:06:13;;;;;;;9.50;4.13;;;;;;;;;;5051452;28;20628;-86
2022/08/12 03:08:41;;;;;;;6.13;3.67;;;;;;;;;;5052846;28;20193;-86
2022/08/12 03:11:11;;;;;;;7.73;3.93;;;;;;;;;;5051699;28;20225;-87
2022/08/12 03:13:41;;;;;;;4.53;3.70;;;;;;;;;;5054211;28;20210;-86
2022/08/12 03:16:09;;;;;;;4.37;3.33;;;;;;;;;;5052711;28;20301;-87
2022/08/12 03:18:37;;;;;;;3.93;3.63;;;;;;;;;;5051887;28;20309;-86
2022/08/12 03:21:06;;;;;;;3.47;3.00;;;;;;;;;;5050968;28;20594;-87
2022/08/12 03:23:34;;;;;;;3.53;3.23;;;;;;;;;;5051871;28;20208;-86
2022/08/12 03:26:02;;;;;;;4.27;3.33;;;;;;;;;;5051143;28;20237;-88
2022/08/12 03:31:15;;;;;;;4.63;3.17;;;;;;;;;;5050743;28;20292;-86
2022/08/12 03:33:43;;;;;;;3.00;2.80;;;;;;;;;;5051881;28;20241;-87
2022/08/12 03:36:13;;;;;;;3.60;3.30;;;;;;;;;;5051119;28;20645;-86
2022/08/12 03:38:42;;;;;;;3.40;3.07;;;;;;;;;;5051393;28;20680;-88
2022/08/12 04:00:31;;;;;;;4.43;3.63;;;;;;;;;;5054529;28;20686;-87
2022/08/12 04:03:00;;;;;;;3.80;3.50;;;;;;;;;;5054949;28;20222;-87
2022/08/12 04:05:28;;;;;;;4.57;3.73;;;;;;;;;;5054237;28;20279;-86
2022/08/12 04:07:56;;;;;;;5.80;3.53;;;;;;;;;;5055216;28;20213;-87
2022/08/12 04:13:14;;;;;;;6.77;3.63;;;;;;;;;;5054690;28;20229;-86
2022/08/12 04:13:15;;;;;;;3.80;3.50;;;;;;;;;;5054676;28;20236;-86
2022/08/12 04:15:45;;;;;;;4.30;3.40;;;;;;;;;;5054063;28;20221;-86
2022/08/12 04:18:14;;;;;;;5.47;3.70;;;;;;;;;;5055100;28;20654;-87
2022/08/12 04:20:42;;;;;;;4.07;3.77;;;;;;;;;;5054522;28;20253;-86
2022/08/12 04:23:12;;;;;;;6.27;4.00;;;;;;;;;;5057103;28;20246;-88
2022/08/12 04:25:39;;;;;;;7.67;3.60;;;;;;;;;;5044424;28;20246;-86
2022/08/12 04:28:07;;;;;;;4.37;3.60;;;;;;;;;;5055575;28;20210;-86
2022/08/12 04:30:34;;;;;;;8.17;3.77;;;;;;;;;;5054569;28;20253;-86
2022/08/12 04:33:02;;;;;;;8.00;3.83;;;;;;;;;;5055038;28;20234;-86
2022/08/12 04:35:29;;;;;;;9.17;4.00;;;;;;;;;;5054588;28;20632;-86
2022/08/12 04:37:57;;;;;;;9.90;3.70;;;;;;;;;;5054499;28;20662;-86
2022/08/12 04:40:28;;;;;;;8.60;4.00;;;;;;;;;;5055002;28;20233;-86
2022/08/12 04:42:55;;;;;;;13.50;4.03;;;;;;;;;;5054283;28;20257;-86
2022/08/12 04:45:22;;;;;;;6.97;4.73;;;;;;;;;;5054044;28;20261;-86
2022/08/12 04:47:49;;;;;;;9.17;4.20;;;;;;;;;;5054303;28;20232;-86
2022/08/12 04:50:17;;;;;;;15.60;5.27;;;;;;;;;;5053654;28;20230;-86
2022/08/12 04:52:45;;;;;;;19.33;5.30;;;;;;;;;;5055319;28;20284;-87
2022/08/12 04:55:12;;;;;;;10.37;5.10;;;;;;;;;;5054142;28;20217;-87
2022/08/12 04:57:40;;;;;;;5.33;4.30;;;;;;;;;;5054451;28;20230;-86
2022/08/12 05:00:09;;;;;;;13.93;4.20;;;;;;;;;;5046204;28;20202;-86
2022/08/12 05:02:36;;;;;;;9.50;4.30;;;;;;;;;;5054371;28;20299;-83
2022/08/12 05:05:04;;;;;;;12.40;4.10;;;;;;;;;;5056991;28;20206;-86
2022/08/12 05:07:32;;;;;;;11.43;4.27;;;;;;;;;;5060153;28;20210;-88
2022/08/12 05:09:59;;;;;;;10.03;4.73;;;;;;;;;;5057514;28;20210;-86
2022/08/12 05:12:27;;;;;;;4.57;4.13;;;;;;;;;;5055961;28;20225;-86
2022/08/12 05:14:55;;;;;;;5.53;4.30;;;;;;;;;;5055540;28;20225;-84
2022/08/12 05:17:25;;;;;;;4.77;4.23;;;;;;;;;;5057173;28;20206;-85
2022/08/12 05:19:52;;;;;;;6.17;4.07;;;;;;;;;;5060730;28;20539;-85
2022/08/12 05:22:20;;;;;;;4.60;4.20;;;;;;;;;;5058211;28;20662;-88
2022/08/12 05:24:47;;;;;;;11.40;4.57;;;;;;;;;;5054044;28;20187;-88
2022/08/12 05:27:14;;;;;;;4.57;4.20;;;;;;;;;;5053381;28;20237;-89
2022/08/12 05:29:42;;;;;;;10.73;4.60;;;;;;;;;;5053657;28;20214;-89
2022/08/12 05:32:10;;;;;;;16.30;4.97;;;;;;;;;;5052506;28;20237;-89
2022/08/12 05:34:37;;;;;;;9.73;4.60;;;;;;;;;;5057114;28;20245;-89
2022/08/12 05:37:05;;;;;;;6.60;4.33;;;;;;;;;;5073472;28;20236;-89
2022/08/12 05:39:32;;;;;;;6.97;4.70;;;;;;;;;;5054747;28;20217;-89
2022/08/12 05:41:59;;;;;;;12.97;4.47;;;;;;;;;;5053059;28;20245;-89
2022/08/12 05:44:26;;;;;;;15.03;4.97;;;;;;;;;;5053545;28;20692;-90
2022/08/12 05:46:53;;;;;;;14.00;5.10;;;;;;;;;;5053114;28;20233;-87
2022/08/12 05:49:22;;;;;;;7.67;4.83;;;;;;;;;;5053745;28;20186;-88
2022/08/12 05:51:49;;;;;;;6.47;4.33;;;;;;;;;;5052640;28;20245;-87
2022/08/12 05:54:17;;;;;;;5.27;4.40;;;;;;;;;;5058137;28;20233;-86
2022/08/12 05:56:44;;;;;;;7.03;4.20;;;;;;;;;;5064077;28;20233;-85
2022/08/12 05:59:12;;;;;;;12.03;4.77;;;;;;;;;;5057486;28;20190;-87
2022/08/12 06:01:40;;;;;;;4.50;3.93;;;;;;;;;;5053475;28;20262;-87
2022/08/12 06:04:08;;;;;;;7.13;4.33;;;;;;;;;;5052898;28;20643;-88
2022/08/12 06:06:40;;;;;;;8.20;4.13;;;;;;;;;;5051858;28;20254;-88
2022/08/12 06:09:09;;;;;;;5.47;3.97;;;;;;;;;;5038459;28;20242;-88
2022/08/12 06:11:37;;;;;;;8.23;4.37;;;;;;;;;;5041088;28;20261;-89
2022/08/12 06:14:04;;;;;;;9.93;3.80;;;;;;;;;;5035544;28;20222;-87
2022/08/12 06:16:34;;;;;;;4.80;3.43;;;;;;;;;;5034923;28;20249;-87
2022/08/12 06:19:03;;;;;;;7.53;3.90;;;;;;;;;;5039342;28;20206;-88
2022/08/12 06:21:30;;;;;;;7.63;3.67;;;;;;;;;;5032250;28;20234;-88
2022/08/12 06:23:58;;;;;;;5.57;3.13;;;;;;;;;;5032788;28;20188;-87
2022/08/12 06:26:26;;;;;;;5.33;3.00;;;;;;;;;;5031895;28;20238;-87
2022/08/12 06:28:54;;;;;;;6.27;2.80;;;;;;;;;;5032652;28;20619;-88
2022/08/12 06:31:21;;;;;;;3.77;2.60;;;;;;;;;;5031546;28;20401;-89
2022/08/12 06:33:49;;;;;;;3.28;3.03;;;;;;;;;;5039394;28;20227;-85
2022/08/12 06:36:17;;;;;;;2.43;2.30;;;;;;;;;;5048469;28;20241;-83
2022/08/12 06:38:46;;;;;;;4.82;2.92;;;;;;;;;;5068892;28;20649;-87
2022/08/12 06:43:59;;;;;;;2.97;2.57;;;;;;;;;;5036377;28;20261;-82
2022/08/12 06:46:27;;;;;;;3.22;2.60;;;;;;;;;;5035278;28;20288;-80
2022/08/12 06:48:57;;;;;;;4.47;2.40;;;;;;;;;;5048743;28;20674;-81
2022/08/12 06:51:25;;;;;;;2.47;2.20;;;;;;;;;;5054955;28;20288;-81
2022/08/12 06:53:52;;;;;;;2.50;2.30;;;;;;;;;;5063349;28;20222;-82
2022/08/12 06:56:20;;;;;;;3.15;2.75;;;;;;;;;;5055022;28;20300;-81
2022/08/12 06:58:47;;;;;;;2.28;2.03;;;;;;;;;;5055094;28;20255;-82
2022/08/12 07:01:16;;;;;;;3.00;2.13;;;;;;;;;;5054273;28;20798;-82
2022/08/12 07:03:43;;;;;;;5.13;2.13;;;;;;;;;;5055658;28;20206;-82
2022/08/12 07:06:10;;;;;;;5.15;2.28;;;;;;;;;;5042658;28;20736;-84
2022/08/12 07:08:38;;;;;;;3.13;2.05;;;;;;;;;;5034656;28;20268;-82
2022/08/12 07:11:05;;;;;;;3.90;2.15;;;;;;;;;;5034564;28;20230;-83
2022/08/12 07:13:37;;;;;;;2.17;2.03;;;;;;;;;;5052215;28;20206;-82
2022/08/12 07:16:05;;;;;;;4.03;2.10;;;;;;;;;;5053663;28;20321;-83
2022/08/12 07:18:32;;;;;;;2.20;2.00;;;;;;;;;;5046268;28;20199;-82
2022/08/12 07:21:02;;;;;;;12.25;2.90;;;;;;;;;;5045835;28;20229;-82
2022/08/12 07:23:30;;;;;;;2.45;2.22;;;;;;;;;;5058254;28;20194;-82
2022/08/12 07:25:57;;;;;;;3.47;2.00;;;;;;;;;;5057204;28;20230;-80
2022/08/12 07:28:28;;;;;;;4.75;2.33;;;;;;;;;;5057099;28;20271;-82
2022/08/12 07:30:57;;;;;;;2.92;1.85;;;;;;;;;;5055664;28;20225;-81
2022/08/12 07:33:26;;;;;;;4.93;1.77;;;;;;;;;;5057178;28;20230;-80
2022/08/12 07:35:54;;;;;;;2.58;1.77;;;;;;;;;;5066424;28;20232;-81
2022/08/12 07:38:24;;;;;;;2.55;2.10;;;;;;;;;;5077745;28;20250;-81
2022/08/12 07:40:52;;;;;;;3.20;2.00;;;;;;;;;;5077595;28;20229;-82
2022/08/12 07:43:20;;;;;;;2.15;1.83;;;;;;;;;;5078444;28;20244;-81
2022/08/12 07:45:48;;;;;;;2.05;1.50;;;;;;;;;;5076802;28;20255;-81
2022/08/12 07:48:16;;;;;;;4.63;2.38;;;;;;;;;;5077133;28;20247;-83
2022/08/12 07:50:44;;;;;;;2.67;1.73;;;;;;;;;;5076350;28;20260;-85
2022/08/12 07:53:11;;;;;;;2.20;1.92;;;;;;;;;;5077201;28;20229;-80
2022/08/12 07:55:38;;;;;;;3.25;1.77;;;;;;;;;;5076090;28;20263;-80
2022/08/12 07:58:05;;;;;;;2.15;1.63;;;;;;;;;;5073975;28;20214;-81
2022/08/12 08:00:33;;;;;;;1.60;1.50;;;;;;;;;;5053326;28;20233;-80
2022/08/12 08:03:01;;;;;;;2.67;1.80;;;;;;;;;;5057222;28;20650;-81
2022/08/12 08:05:33;;;;;;;1.92;1.70;;;;;;;;;;5058695;28;20242;-81
2022/08/12 08:08:02;;;;;;;1.73;1.50;;;;;;;;;;5036760;28;20749;-87
2022/08/12 08:10:29;;;;;;;3.33;1.80;;;;;;;;;;5037404;28;20230;-83
2022/08/12 08:12:57;;;;;;;1.98;1.88;;;;;;;;;;5057765;28;20228;-82
2022/08/12 08:15:27;;;;;;;8.43;1.80;;;;;;;;;;5059391;28;20287;-81
2022/08/12 08:17:56;;;;;;;2.15;1.95;;;;;;;;;;5058906;28;20222;-82
2022/08/12 08:20:27;;;;;;;2.30;1.92;;;;;;;;;;5057579;28;20313;-80
2022/08/12 08:22:56;;;;;;;2.28;2.03;;;;;;;;;;5057598;28;20230;-81
2022/08/12 08:25:30;;;;;;;2.92;1.70;;;;;;;;;;5055969;28;20630;-83
2022/08/12 08:27:57;;;;;;;2.42;1.70;;;;;;;;;;5055726;28;20213;-82
2022/08/12 08:30:25;;;;;;;1.88;1.75;;;;;;;;;;5056827;28;20253;-84
2022/08/12 08:32:52;;;;;;;1.67;1.58;;;;;;;;;;5056416;28;20221;-84
2022/08/12 08:35:21;;;;;;;2.55;1.70;;;;;;;;;;5055728;28;20244;-83
2022/08/12 08:37:48;;;;;;;4.43;2.15;;;;;;;;;;5048708;28;20198;-81
2022/08/12 08:43:02;;;;;;;1.45;1.33;;;;;;;;;;5056026;28;20808;-83
2022/08/12 08:45:32;;;;;;;1.67;1.58;;;;;;;;;;5060102;28;20280;-86
2022/08/12 08:47:59;;;;;;;2.05;1.80;;;;;;;;;;5060634;28;20666;-82
2022/08/12 08:50:27;;;;;;;2.30;1.63;;;;;;;;;;5058561;28;20233;-80
2022/08/12 08:52:55;;;;;;;2.70;2.05;;;;;;;;;;5056510;28;20226;-84
2022/08/12 08:55:24;;;;;;;2.25;1.77;;;;;;;;;;5056403;28;20292;-82
2022/08/12 08:57:53;;;;;;;3.53;1.38;;;;;;;;;;5057093;28;20213;-82
2022/08/12 09:00:21;;;;;;;3.55;1.45;;;;;;;;;;5055557;28;20234;-84
2022/08/12 09:02:49;;;;;;;1.63;1.30;;;;;;;;;;5056309;28;20226;-85
2022/08/12 09:05:17;;;;;;;1.42;1.33;;;;;;;;;;5055998;28;20272;-84
2022/08/12 09:07:45;;;;;;;3.08;1.60;;;;;;;;;;5057040;28;20228;-84
2022/08/12 09:10:12;;;;;;;2.03;1.48;;;;;;;;;;5058272;28;20198;-82
2022/08/12 09:15:26;;;;;;;1.88;1.70;;;;;;;;;;5054969;28;20728;-82
2022/08/12 09:17:54;;;;;;;1.60;1.50;;;;;;;;;;5055782;28;20210;-83
2022/08/12 09:20:22;;;;;;;1.58;1.48;;;;;;;;;;5054512;28;20233;-82
2022/08/12 09:22:51;;;;;;;3.10;1.60;;;;;;;;;;5055864;28;20226;-84
2022/08/12 09:25:18;;;;;;;2.70;1.02;;;;;;;;;;5055130;28;20238;-82
2022/08/12 09:27:46;;;;;;;2.22;1.50;;;;;;;;;;5056533;28;20630;-81
2022/08/12 09:32:59;;;;;;;3.60;1.67;;;;;;;;;;5076071;28;20225;-83
2022/08/12 09:35:30;;;;;;;1.60;1.50;;;;;;;;;;5070100;28;20293;-80
2022/08/12 09:37:58;;;;;;;3.10;1.50;;;;;;;;;;5036580;28;20233;-82
2022/08/12 09:40:25;;;;;;;1.30;1.20;;;;;;;;;;5049086;28;20230;-83
2022/08/12 09:48:18;;;;;;;1.48;1.38;;;;;;;;;;5049757;28;20210;-80
2022/08/12 09:50:46;;;;;;;2.45;1.52;;;;;;;;;;5057227;28;20226;-81
2022/08/12 09:53:15;;;;;;;2.38;1.48;;;;;;;;;;5053376;28;20605;-79
2022/08/12 09:55:46;;;;;;;1.20;1.20;;;;;;;;;;5052461;28;20241;-82
2022/08/12 09:58:15;;;;;;;2.22;1.38;;;;;;;;;;5034348;28;20226;-82
2022/08/12 10:00:43;;;;;;;2.10;1.27;;;;;;;;;;5054757;28;20241;-81
2022/08/12 10:03:11;;;;;;;2.42;1.40;;;;;;;;;;5059608;28;20207;-81
2022/08/12 10:05:50;;;;;;;1.58;1.17;;;;;;;;;;5047714;28;20262;-82
2022/08/12 10:08:18;;;;;;;2.05;1.20;;;;;;;;;;5036784;28;20590;-82
2022/08/12 10:13:43;;;;;;;1.70;1.52;;;;;;;;;;5019780;28;20210;-82
2022/08/12 10:16:11;;;;;;;2.90;1.45;;;;;;;;;;5021542;28;20586;-83
2022/08/12 10:18:40;;;;;;;3.03;1.80;;;;;;;;;;5033081;28;20230;-82
2022/08/12 10:21:08;;;;;;;1.38;1.27;;;;;;;;;;5032048;28;20567;-82
2022/08/12 10:23:38;;;;;;;2.10;1.20;;;;;;;;;;5032742;28;20214;-83
2022/08/12 10:31:37;;;;;;;1.65;1.55;;;;;;;;;;5051636;28;20252;-82
2022/08/12 10:34:05;;;;;;;4.78;2.20;;;;;;;;;;5052115;28;20233;-82
2022/08/12 10:36:32;;;;;;;2.50;1.30;;;;;;;;;;5037965;28;20245;-82
2022/08/12 10:39:01;;;;;;;1.35;1.08;;;;;;;;;;5032629;28;20198;-82
2022/08/12 10:44:15;;;;;;;1.50;1.40;;;;;;;;;;5032469;28;20538;-82
2022/08/12 10:46:44;;;;;;;1.88;1.35;;;;;;;;;;5031500;28;20249;-82
2022/08/12 10:49:11;;;;;;;2.25;1.42;;;;;;;;;;5032424;28;20213;-83
2022/08/12 10:51:39;;;;;;;1.08;1.05;;;;;;;;;;5031283;28;20744;-83
2022/08/12 10:54:06;;;;;;;1.50;1.40;;;;;;;;;;5032314;28;20202;-82
2022/08/12 10:56:33;;;;;;;2.05;1.40;;;;;;;;;;5031677;28;20254;-82
2022/08/12 10:59:00;;;;;;;2.17;1.45;;;;;;;;;;5032225;28;20225;-82
2022/08/12 11:01:30;;;;;;;1.17;0.93;;;;;;;;;;5031628;28;20234;-82
2022/08/12 11:03:57;;;;;;;4.40;1.17;;;;;;;;;;5031997;28;20213;-82
2022/08/12 11:06:24;;;;;;;1.73;1.63;;;;;;;;;;5031191;28;20702;-82
2022/08/12 11:08:53;;;;;;;1.52;1.42;;;;;;;;;;5032021;28;20194;-83
2022/08/12 11:11:20;;;;;;;1.85;1.13;;;;;;;;;;5031021;28;20713;-82
2022/08/12 11:13:48;;;;;;;2.15;1.27;;;;;;;;;;5031613;28;20198;-82
2022/08/12 11:16:16;;;;;;;1.65;1.38;;;;;;;;;;5031200;28;20245;-82
2022/08/12 11:18:45;;;;;;;2.30;1.27;;;;;;;;;;5031917;28;20206;-82
2022/08/12 11:21:12;;;;;;;1.20;1.20;;;;;;;;;;5031258;28;20238;-82
2022/08/12 11:23:39;;;;;;;1.73;1.30;;;;;;;;;;5031916;28;20216;-81
2022/08/12 11:26:07;;;;;;;6.18;1.60;;;;;;;;;;5031228;28;20242;-81
2022/08/12 11:28:34;;;;;;;1.17;1.05;;;;;;;;;;5031959;28;20700;-81
2022/08/12 11:31:01;;;;;;;1.65;1.20;;;;;;;;;;5031289;28;20236;-82
2022/08/12 11:33:29;;;;;;;3.90;1.40;;;;;;;;;;5031658;28;20199;-81
2022/08/12 11:36:03;;;;;;;1.33;1.10;;;;;;;;;;5030985;28;20234;-81
2022/08/12 11:38:31;;;;;;;4.03;1.50;;;;;;;;;;5031606;28;20186;-81
2022/08/12 11:40:58;;;;;;;2.67;1.42;;;;;;;;;;5031052;28;20226;-82
2022/08/12 11:43:25;;;;;;;1.63;1.52;;;;;;;;;;5031977;28;20215;-82
2022/08/12 11:45:52;;;;;;;1.35;1.25;;;;;;;;;;5031123;28;20238;-83
2022/08/12 11:48:19;;;;;;;2.85;1.17;;;;;;;;;;5031583;28;20587;-80
2022/08/12 11:50:46;;;;;;;1.90;1.33;;;;;;;;;;5031581;28;20233;-82
2022/08/12 11:53:15;;;;;;;2.10;1.25;;;;;;;;;;5029588;28;20571;-83
2022/08/12 11:55:42;;;;;;;1.55;1.10;;;;;;;;;;5031638;28;20257;-83
2022/08/12 11:58:09;;;;;;;1.10;1.10;;;;;;;;;;5042738;28;20206;-83
2022/08/12 12:00:36;;;;;;;1.23;1.13;;;;;;;;;;5030833;28;20728;-83
2022/08/12 12:03:03;;;;;;;1.58;1.08;;;;;;;;;;5031729;28;20677;-83
2022/08/12 12:05:30;;;;;;;2.00;1.05;;;;;;;;;;5034513;28;20686;-83
2022/08/12 12:07:57;;;;;;;0.80;0.80;;;;;;;;;;5044923;28;20220;-83
2022/08/12 12:10:26;;;;;;;1.77;1.20;;;;;;;;;;5035730;28;20234;-85
2022/08/12 12:12:54;;;;;;;2.05;1.00;;;;;;;;;;5035319;28;20269;-84
2022/08/12 12:15:21;;;;;;;1.40;1.20;;;;;;;;;;5014646;28;20603;-84
2022/08/12 12:17:51;;;;;;;1.10;1.00;;;;;;;;;;5015106;28;20227;-83
2022/08/12 12:20:18;;;;;;;1.80;1.17;;;;;;;;;;5014879;28;20310;-84
2022/08/12 12:22:45;;;;;;;2.13;0.90;;;;;;;;;;5015105;28;20209;-84
2022/08/12 12:25:12;;;;;;;2.35;1.17;;;;;;;;;;5014697;28;20214;-85
2022/08/12 12:27:51;;;;;;;1.00;0.90;;;;;;;;;;5015145;28;20239;-84
2022/08/12 12:30:18;;;;;;;1.85;1.13;;;;;;;;;;5020717;28;20562;-84
2022/08/12 12:32:45;;;;;;;1.73;1.10;;;;;;;;;;5034755;28;20225;-85
2022/08/12 12:35:12;;;;;;;1.08;1.08;;;;;;;;;;5033939;28;20227;-85
2022/08/12 12:37:53;;;;;;;0.93;0.93;;;;;;;;;;5034611;28;20225;-85
2022/08/12 12:40:20;;;;;;;1.10;1.00;;;;;;;;;;5033909;28;20233;-85
2022/08/12 12:42:47;;;;;;;2.35;1.20;;;;;;;;;;5036007;28;20210;-83
2022/08/12 12:45:16;;;;;;;2.05;1.17;;;;;;;;;;5054024;28;20240;-85
2022/08/12 12:47:53;;;;;;;2.05;1.02;;;;;;;;;;5053896;28;20272;-83
2022/08/12 12:50:20;;;;;;;1.05;1.05;;;;;;;;;;5053945;28;20232;-84
2022/08/12 12:52:47;;;;;;;1.17;1.00;;;;;;;;;;5053918;28;20213;-86
2022/08/12 12:55:15;;;;;;;1.63;1.10;;;;;;;;;;5053232;28;20225;-86
2022/08/12 12:57:44;;;;;;;1.08;0.98;;;;;;;;;;5045718;28;20225;-86
2022/08/12 13:00:16;;;;;;;0.90;0.90;;;;;;;;;;5044577;28;20209;-85
2022/08/12 13:02:51;;;;;;;1.20;1.10;;;;;;;;;;5053751;28;20240;-86
2022/08/12 13:05:18;;;;;;;1.25;1.20;;;;;;;;;;5053485;28;20233;-86
2022/08/12 13:07:46;;;;;;;1.45;1.05;;;;;;;;;;5053814;28;20229;-85
2022/08/12 13:10:13;;;;;;;1.15;0.90;;;;;;;;;;5053034;28;20188;-87
2022/08/12 13:12:41;;;;;;;1.85;1.30;;;;;;;;;;5053741;28;20216;-86
2022/08/12 13:15:14;;;;;;;0.88;0.88;;;;;;;;;;5052912;28;20236;-85
2022/08/12 13:17:42;;;;;;;2.35;1.00;;;;;;;;;;5053669;28;20312;-86
2022/08/12 13:20:12;;;;;;;1.00;1.00;;;;;;;;;;5051174;28;20205;-86
2022/08/12 13:22:40;;;;;;;1.23;1.13;;;;;;;;;;5033460;28;20198;-85
2022/08/12 13:25:07;;;;;;;2.42;1.00;;;;;;;;;;5032846;28;20187;-86
2022/08/12 13:27:36;;;;;;;2.20;1.20;;;;;;;;;;5033848;28;20226;-85
2022/08/12 13:30:05;;;;;;;1.25;1.20;;;;;;;;;;5035627;28;20193;-86
2022/08/12 13:32:33;;;;;;;2.72;0.90;;;;;;;;;;5053103;28;20204;-85
2022/08/12 13:35:02;;;;;;;3.53;2.03;;;;;;;;;;5052921;28;20185;-85
2022/08/12 13:37:30;;;;;;;1.52;1.05;;;;;;;;;;5053048;28;20221;-85
2022/08/12 13:39:58;;;;;;;2.25;1.00;;;;;;;;;;5052995;28;20283;-86
2022/08/12 13:42:25;;;;;;;1.20;1.10;;;;;;;;;;5032753;28;20202;-85
2022/08/12 13:44:53;;;;;;;1.27;0.95;;;;;;;;;;5041966;28;20206;-87
2022/08/12 13:47:21;;;;;;;1.65;1.35;;;;;;;;;;5036180;28;20230;-88
2022/08/12 13:49:49;;;;;;;1.20;1.10;;;;;;;;;;5043753;28;20245;-87
2022/08/12 13:52:17;;;;;;;2.72;1.30;;;;;;;;;;5019905;28;20235;-86
2022/08/12 13:54:46;;;;;;;2.40;1.10;;;;;;;;;;5052379;28;20284;-87
2022/08/12 13:57:14;;;;;;;1.88;1.00;;;;;;;;;;5051512;28;20318;-89
2022/08/12 13:59:43;;;;;;;1.40;0.82;;;;;;;;;;5048325;28;20197;-84
2022/08/12 14:02:12;;;;;;;2.03;1.05;;;;;;;;;;5040359;28;20225;-87
2022/08/12 14:04:39;;;;;;;1.55;1.20;;;;;;;;;;5052309;28;20209;-86
2022/08/12 14:07:06;;;;;;;2.90;1.20;;;;;;;;;;5047746;28;20607;-86
2022/08/12 14:12:18;;;;;;;1.05;0.95;;;;;;;;;;5050835;28;20306;-86
2022/08/12 14:14:49;;;;;;;1.42;1.17;;;;;;;;;;5051996;28;20260;-85
2022/08/12 14:17:17;;;;;;;1.15;0.95;;;;;;;;;;5051769;28;20741;-84
2022/08/12 14:20:12;;;;;;;1.35;0.90;;;;;;;;;;5051996;28;20236;-86
2022/08/12 14:22:32;;;;;;;2.70;1.15;;;;;;;;;;5050279;28;20304;-86
2022/08/12 14:25:00;;;;;;;1.38;0.95;;;;;;;;;;5031255;28;20216;-86
2022/08/12 14:27:28;;;;;;;1.08;0.98;;;;;;;;;;5031489;28;20250;-85
2022/08/12 14:29:56;;;;;;;2.42;1.27;;;;;;;;;;5031810;28;20206;-89
2022/08/12 14:32:23;;;;;;;1.83;0.90;;;;;;;;;;5032361;28;20194;-86
2022/08/12 14:34:51;;;;;;;1.30;1.20;;;;;;;;;;5032742;28;20246;-85
2022/08/12 14:37:18;;;;;;;2.88;1.15;;;;;;;;;;5032342;28;20234;-85
2022/08/12 14:39:46;;;;;;;1.48;1.00;;;;;;;;;;5033348;28;20210;-87
2022/08/12 14:42:13;;;;;;;1.17;0.98;;;;;;;;;;5013754;28;20250;-86
2022/08/12 14:44:41;;;;;;;4.80;1.10;;;;;;;;;;5012204;28;20203;-84
2022/08/12 14:47:08;;;;;;;1.20;1.10;;;;;;;;;;5011117;28;20241;-84
2022/08/12 14:49:35;;;;;;;3.42;0.90;;;;;;;;;;5011759;28;20218;-83
2022/08/12 14:52:05;;;;;;;1.63;0.95;;;;;;;;;;5011375;28;20242;-84
2022/08/12 14:54:32;;;;;;;1.38;1.10;;;;;;;;;;5034382;28;20550;-87
2022/08/12 14:56:59;;;;;;;1.88;1.27;;;;;;;;;;5051002;28;20312;-86
2022/08/12 15:02:19;;;;;;;0.95;0.88;;;;;;;;;;5031080;28;20441;-85
2022/08/12 15:04:46;;;;;;;1.92;1.30;;;;;;;;;;5031876;28;20191;-84
2022/08/12 15:07:13;;;;;;;0.85;0.85;;;;;;;;;;5031740;28;20720;-87
2022/08/12 15:09:40;;;;;;;3.33;0.82;;;;;;;;;;5035537;28;20293;-84
2022/08/12 15:12:09;;;;;;;1.27;1.10;;;;;;;;;;5050302;28;20244;-84
2022/08/12 15:14:36;;;;;;;1.00;1.00;;;;;;;;;;5051670;28;20313;-84
2022/08/12 15:17:05;;;;;;;2.33;1.25;;;;;;;;;;5050258;28;20675;-85
2022/08/12 15:19:36;;;;;;;0.75;0.70;;;;;;;;;;5036139;28;20207;-86
2022/08/12 15:22:03;;;;;;;2.33;1.20;;;;;;;;;;5031760;28;20246;-86
2022/08/12 15:24:32;;;;;;;1.42;1.20;;;;;;;;;;5032084;28;20206;-86
2022/08/12 15:26:59;;;;;;;2.05;1.10;;;;;;;;;;5039419;28;20261;-85
2022/08/12 15:29:27;;;;;;;0.95;0.93;;;;;;;;;;5051779;28;20213;-85
2022/08/12 15:31:54;;;;;;;2.22;0.98;;;;;;;;;;5043186;28;20231;-86
2022/08/12 15:34:21;;;;;;;1.58;1.10;;;;;;;;;;5049136;28;20198;-87
2022/08/12 15:36:50;;;;;;;1.92;1.15;;;;;;;;;;5046778;28;20226;-81
2022/08/12 15:39:17;;;;;;;2.33;1.10;;;;;;;;;;5054851;28;20216;-83
2022/08/12 15:41:44;;;;;;;3.58;1.20;;;;;;;;;;5054999;28;20238;-83
2022/08/12 15:44:11;;;;;;;1.25;0.90;;;;;;;;;;5056865;28;20209;-82
2022/08/12 15:46:39;;;;;;;2.67;1.02;;;;;;;;;;5054332;28;20230;-83
2022/08/12 15:49:06;;;;;;;1.05;1.05;;;;;;;;;;5057435;28;20280;-82
2022/08/12 15:51:34;;;;;;;1.38;1.27;;;;;;;;;;5056507;28;20762;-81
2022/08/12 15:54:06;;;;;;;2.20;1.05;;;;;;;;;;5058822;28;20278;-82
2022/08/12 15:56:35;;;;;;;1.23;1.13;;;;;;;;;;5056941;28;20260;-81
2022/08/12 15:59:03;;;;;;;4.55;1.05;;;;;;;;;;5059074;28;20277;-81
2022/08/12 16:01:30;;;;;;;1.63;1.10;;;;;;;;;;5043235;28;20238;-82
2022/08/12 16:03:58;;;;;;;0.98;0.98;;;;;;;;;;5057131;28;20187;-81
2022/08/12 16:06:25;;;;;;;2.40;1.10;;;;;;;;;;5041003;28;20235;-81
2022/08/12 16:08:53;;;;;;;2.15;0.90;;;;;;;;;;5038098;28;20191;-80
2022/08/12 16:11:21;;;;;;;4.13;1.17;;;;;;;;;;5043036;28;20229;-80
2022/08/12 16:13:50;;;;;;;1.52;0.90;;;;;;;;;;5051582;28;20187;-81
2022/08/12 16:16:18;;;;;;;1.67;0.95;;;;;;;;;;5037178;28;20245;-82
2022/08/12 16:18:45;;;;;;;2.78;1.13;;;;;;;;;;5017175;28;20206;-83
2022/08/12 16:21:13;;;;;;;8.90;1.48;;;;;;;;;;5014933;28;20235;-82
2022/08/12 16:23:41;;;;;;;0.85;0.85;;;;;;;;;;5024028;28;20205;-81
2022/08/12 16:26:09;;;;;;;1.55;1.10;;;;;;;;;;5034596;28;20238;-82
2022/08/12 16:28:38;;;;;;;1.27;1.17;;;;;;;;;;5037165;28;20198;-82
2022/08/12 16:31:05;;;;;;;1.50;0.70;;;;;;;;;;5042583;28;20235;-82
2022/08/12 16:33:34;;;;;;;4.10;1.20;;;;;;;;;;5036117;28;20589;-83
2022/08/12 16:36:03;;;;;;;1.02;0.82;;;;;;;;;;5034815;28;20722;-82
2022/08/12 16:38:30;;;;;;;3.67;1.63;;;;;;;;;;5036508;28;20614;-82
2022/08/12 16:40:57;;;;;;;2.20;1.20;;;;;;;;;;5034961;28;20233;-83
2022/08/12 16:43:25;;;;;;;1.38;0.80;;;;;;;;;;5035032;28;20184;-82
2022/08/12 16:45:55;;;;;;;1.17;1.13;;;;;;;;;;5035272;28;20249;-82